Monday, November 24, 2014
01:19 UTC
  |  Log In   |  Register Free
Airport Search:

Ormond Beach Municipal Airport
(KOMN)

FAA data valid effective November 13, 2014 - January 08, 2015 (unless otherwise noted).

 
 
 
 
 
 
 
 
 
 
 
 
 
 

Current Aviation Weather for Ormond Beach Municipal Airport (KOMN)

The most recent METAR observation for KOMN was updated at: 2326
METAR Summary (Translated METAR)
KOMN
232250Z 15005KT 10SM SCT070 26/21 A2988
KDAB
232253Z 15004KT 10SM SCT050 SCT080 BKN250 26/21 A2989 RMK AO2 SLP120 T02610211
(7.8 nm SE from KOMN)
KFIN
232250Z 18005KTS 7SM SCT044 26/21 A2988
(11.1 nm NW from KOMN)
TAF Summary (Translated TAF)
KDAB
(7.8 nm SE from KOMN)
231740Z 2318/2418 18015G22KT P6SM SCT025 BKN035 BKN150 FM232100 17014G22KT P6SM VCTS BKN035CB BKN060 FM240200 17006KT P6SM FEW006 SCT025 BKN200 FM240600 19005KT 5SM BR OVC003 TEMPO 2413/2415 BKN006 FM241500 21010KT P6SM BKN015
  Airport Weather Conditions for KOMN

 Current Weather at OMN
75° F
Partly Cloudy
Southeast winds at 4.6 mph
OMN NOAA Radar

Pressure: 29.91 in
Humidity: 89%
Wind: Southeast at 4.6 MPH (4 KT)
Dew Point: 71.6°F
Visibility: 10.00 mi


Airport Weather Forecast for KOMN

Translated METAR and TAF for KOMN
Translated METAR for KOMN (0114 UTC 24 November 2014)
found at http://aviationweather.gov/adds/metars/
 
METAR text: KOMN 232350Z 14004KT 10SM SCT050 24/22 A2991 RMK LAST
Conditions at: KOMN (ORMOND BEACH VOR, FL, US) observed 2350 UTC 23 November 2014
Temperature: 24.0°C (75°F)
Dewpoint: 22.0°C (72°F) [RH = 89%]
Pressure (altimeter): 29.91 inches Hg (1013.0 mb)
Winds: from the SE (140 degrees) at 5 MPH (4 knots; 2.1 m/s)
Visibility: 10 or more miles (16+ km)
Ceiling: at least 12,000 feet AGL
Clouds: scattered clouds at 5000 feet AGL
Weather: no significant weather observed at this time
Translated TAF for KOMN

There is no translated TAF available for this airport

Find All Airport Services Find A Hotel Find A Rental Car Find A Golf Course Find A Restaurant $100 Hamburger



FBO's on the Field
FBO Company Facility Photos Services Transportation Aviation Fuel Prices: Prices include tax
Catering Weather Repair Courtesy Rental Type 100LL JetA JetA+ MOGAS 8087
 
Sunrise Aviation

Currently rated 1.9 by 3 people
FS:Shell
Last Updated: Nov-04
Login to update fuel prices
SS:
Contact Sunrise AviationMore FBO Information
 
Add another FBO Facility Photos Catering Weather Repair Courtesy Rental Type 100LL JetA JetA+ MOGAS 8087
Services Transportation Aviation Fuel Prices: Prices include tax


model-print
model-print
model-print
model-print